sensor_id;sensor_type;location;lat;lon;timestamp;P1;durP1;ratioP1;P2;durP2;ratioP2
64873;SDS011;51367;45.204;38.576;2023-06-01T00:02:24;3.75;;;2.95;;
64873;SDS011;51367;45.204;38.576;2023-06-01T00:04:51;8.63;;;3.53;;
64873;SDS011;51367;45.204;38.576;2023-06-01T00:07:17;5.55;;;3.72;;
64873;SDS011;51367;45.204;38.576;2023-06-01T00:09:43;5.93;;;3.17;;
64873;SDS011;51367;45.204;38.576;2023-06-01T00:12:09;4.53;;;3.33;;
64873;SDS011;51367;45.204;38.576;2023-06-01T00:14:35;3.80;;;3.50;;
64873;SDS011;51367;45.204;38.576;2023-06-01T00:17:01;7.45;;;3.75;;
64873;SDS011;51367;45.204;38.576;2023-06-01T00:19:28;4.70;;;3.53;;
64873;SDS011;51367;45.204;38.576;2023-06-01T00:21:54;6.40;;;3.00;;
64873;SDS011;51367;45.204;38.576;2023-06-01T00:24:21;4.95;;;3.40;;
64873;SDS011;51367;45.204;38.576;2023-06-01T00:26:47;6.93;;;3.58;;
64873;SDS011;51367;45.204;38.576;2023-06-01T00:29:13;9.52;;;3.70;;
64873;SDS011;51367;45.204;38.576;2023-06-01T00:31:39;4.18;;;3.80;;
64873;SDS011;51367;45.204;38.576;2023-06-01T00:34:05;6.32;;;3.63;;
64873;SDS011;51367;45.204;38.576;2023-06-01T00:36:32;5.10;;;3.03;;
64873;SDS011;51367;45.204;38.576;2023-06-01T00:38:59;3.60;;;3.17;;
64873;SDS011;51367;45.204;38.576;2023-06-01T00:41:30;4.25;;;3.33;;
64873;SDS011;51367;45.204;38.576;2023-06-01T00:43:57;4.68;;;3.42;;
64873;SDS011;51367;45.204;38.576;2023-06-01T00:46:23;4.10;;;3.70;;
64873;SDS011;51367;45.204;38.576;2023-06-01T00:48:49;4.60;;;4.20;;
64873;SDS011;51367;45.204;38.576;2023-06-01T00:51:16;5.78;;;3.72;;
64873;SDS011;51367;45.204;38.576;2023-06-01T00:53:42;3.35;;;3.05;;
64873;SDS011;51367;45.204;38.576;2023-06-01T00:56:09;10.38;;;3.97;;
64873;SDS011;51367;45.204;38.576;2023-06-01T00:58:39;4.95;;;3.67;;
64873;SDS011;51367;45.204;38.576;2023-06-01T01:01:05;5.65;;;3.40;;
64873;SDS011;51367;45.204;38.576;2023-06-01T01:03:33;4.95;;;4.55;;
64873;SDS011;51367;45.204;38.576;2023-06-01T01:06:12;5.45;;;3.40;;
64873;SDS011;51367;45.204;38.576;2023-06-01T01:08:48;3.63;;;3.33;;
64873;SDS011;51367;45.204;38.576;2023-06-01T01:11:32;4.90;;;3.97;;
64873;SDS011;51367;45.204;38.576;2023-06-01T01:14:08;4.72;;;3.47;;
64873;SDS011;51367;45.204;38.576;2023-06-01T01:16:40;3.60;;;3.30;;
64873;SDS011;51367;45.204;38.576;2023-06-01T01:19:19;31.85;;;4.68;;
64873;SDS011;51367;45.204;38.576;2023-06-01T01:22:07;4.10;;;3.70;;
64873;SDS011;51367;45.204;38.576;2023-06-01T01:30:35;5.13;;;4.35;;
64873;SDS011;51367;45.204;38.576;2023-06-01T01:33:02;4.43;;;4.03;;
64873;SDS011;51367;45.204;38.576;2023-06-01T01:35:29;3.95;;;3.55;;
64873;SDS011;51367;45.204;38.576;2023-06-01T01:37:57;9.32;;;4.47;;
64873;SDS011;51367;45.204;38.576;2023-06-01T01:40:23;5.90;;;3.63;;
64873;SDS011;51367;45.204;38.576;2023-06-01T01:42:50;4.72;;;3.50;;
64873;SDS011;51367;45.204;38.576;2023-06-01T01:45:16;4.63;;;3.92;;
64873;SDS011;51367;45.204;38.576;2023-06-01T01:47:51;3.72;;;3.42;;
64873;SDS011;51367;45.204;38.576;2023-06-01T01:50:22;5.03;;;3.95;;
64873;SDS011;51367;45.204;38.576;2023-06-01T01:52:53;4.25;;;3.90;;
64873;SDS011;51367;45.204;38.576;2023-06-01T01:55:22;4.30;;;3.90;;
64873;SDS011;51367;45.204;38.576;2023-06-01T01:57:54;13.77;;;4.00;;
64873;SDS011;51367;45.204;38.576;2023-06-01T02:00:21;4.80;;;4.30;;
64873;SDS011;51367;45.204;38.576;2023-06-01T02:02:48;4.72;;;3.85;;
64873;SDS011;51367;45.204;38.576;2023-06-01T02:05:15;4.43;;;3.83;;
64873;SDS011;51367;45.204;38.576;2023-06-01T02:07:41;6.05;;;3.95;;
64873;SDS011;51367;45.204;38.576;2023-06-01T02:10:07;4.45;;;3.97;;
64873;SDS011;51367;45.204;38.576;2023-06-01T02:12:33;5.85;;;4.70;;
64873;SDS011;51367;45.204;38.576;2023-06-01T02:14:59;3.85;;;3.50;;
64873;SDS011;51367;45.204;38.576;2023-06-01T02:17:25;5.22;;;4.72;;
64873;SDS011;51367;45.204;38.576;2023-06-01T02:19:52;4.70;;;4.20;;
64873;SDS011;51367;45.204;38.576;2023-06-01T02:22:18;5.43;;;4.63;;
64873;SDS011;51367;45.204;38.576;2023-06-01T02:24:44;5.30;;;3.83;;
64873;SDS011;51367;45.204;38.576;2023-06-01T02:27:10;4.85;;;4.07;;
64873;SDS011;51367;45.204;38.576;2023-06-01T02:29:36;5.03;;;4.05;;
64873;SDS011;51367;45.204;38.576;2023-06-01T02:32:02;5.15;;;4.70;;
64873;SDS011;51367;45.204;38.576;2023-06-01T02:34:28;6.03;;;4.60;;
64873;SDS011;51367;45.204;38.576;2023-06-01T02:36:54;4.22;;;3.92;;
64873;SDS011;51367;45.204;38.576;2023-06-01T02:39:25;6.25;;;4.60;;
64873;SDS011;51367;45.204;38.576;2023-06-01T02:41:51;5.68;;;4.05;;
64873;SDS011;51367;45.204;38.576;2023-06-01T02:44:18;5.22;;;3.88;;
64873;SDS011;51367;45.204;38.576;2023-06-01T02:46:44;11.23;;;4.63;;
64873;SDS011;51367;45.204;38.576;2023-06-01T02:49:10;8.10;;;3.72;;
64873;SDS011;51367;45.204;38.576;2023-06-01T02:51:37;9.43;;;3.97;;
64873;SDS011;51367;45.204;38.576;2023-06-01T02:54:23;5.53;;;3.88;;
64873;SDS011;51367;45.204;38.576;2023-06-01T02:56:51;5.07;;;3.88;;
64873;SDS011;51367;45.204;38.576;2023-06-01T02:59:23;3.92;;;3.58;;
64873;SDS011;51367;45.204;38.576;2023-06-01T03:01:55;4.33;;;3.57;;
64873;SDS011;51367;45.204;38.576;2023-06-01T03:04:20;3.67;;;3.38;;
64873;SDS011;51367;45.204;38.576;2023-06-01T03:06:47;5.40;;;3.55;;
64873;SDS011;51367;45.204;38.576;2023-06-01T03:09:36;5.05;;;4.18;;
64873;SDS011;51367;45.204;38.576;2023-06-01T03:12:02;4.38;;;3.85;;
64873;SDS011;51367;45.204;38.576;2023-06-01T03:14:29;5.90;;;3.63;;
64873;SDS011;51367;45.204;38.576;2023-06-01T03:16:55;3.45;;;3.22;;
64873;SDS011;51367;45.204;38.576;2023-06-01T03:19:22;6.75;;;3.05;;
64873;SDS011;51367;45.204;38.576;2023-06-01T03:21:51;5.32;;;3.88;;
64873;SDS011;51367;45.204;38.576;2023-06-01T03:24:20;6.05;;;3.88;;
64873;SDS011;51367;45.204;38.576;2023-06-01T03:26:49;4.13;;;3.72;;
64873;SDS011;51367;45.204;38.576;2023-06-01T03:29:16;3.67;;;3.38;;
64873;SDS011;51367;45.204;38.576;2023-06-01T03:31:42;4.13;;;3.13;;
64873;SDS011;51367;45.204;38.576;2023-06-01T03:34:09;4.85;;;2.97;;
64873;SDS011;51367;45.204;38.576;2023-06-01T03:36:35;3.85;;;3.42;;
64873;SDS011;51367;45.204;38.576;2023-06-01T03:39:01;5.50;;;3.38;;
64873;SDS011;51367;45.204;38.576;2023-06-01T03:41:34;3.15;;;2.75;;
64873;SDS011;51367;45.204;38.576;2023-06-01T03:44:02;3.50;;;3.20;;
64873;SDS011;51367;45.204;38.576;2023-06-01T03:46:28;3.00;;;2.78;;
64873;SDS011;51367;45.204;38.576;2023-06-01T03:48:54;3.13;;;2.92;;
64873;SDS011;51367;45.204;38.576;2023-06-01T03:51:20;6.18;;;3.05;;
64873;SDS011;51367;45.204;38.576;2023-06-01T03:53:46;4.20;;;3.45;;
64873;SDS011;51367;45.204;38.576;2023-06-01T03:56:14;4.25;;;3.10;;
64873;SDS011;51367;45.204;38.576;2023-06-01T03:58:41;4.15;;;3.03;;
64873;SDS011;51367;45.204;38.576;2023-06-01T04:01:08;6.68;;;4.00;;
64873;SDS011;51367;45.204;38.576;2023-06-01T04:03:38;4.40;;;3.67;;
64873;SDS011;51367;45.204;38.576;2023-06-01T04:06:04;4.05;;;3.75;;
64873;SDS011;51367;45.204;38.576;2023-06-01T04:08:40;5.63;;;4.05;;
64873;SDS011;51367;45.204;38.576;2023-06-01T04:11:16;3.53;;;3.28;;
64873;SDS011;51367;45.204;38.576;2023-06-01T04:13:43;3.75;;;3.45;;
64873;SDS011;51367;45.204;38.576;2023-06-01T04:16:09;13.52;;;4.03;;
64873;SDS011;51367;45.204;38.576;2023-06-01T04:18:37;5.55;;;4.03;;
64873;SDS011;51367;45.204;38.576;2023-06-01T04:21:03;7.63;;;4.53;;
64873;SDS011;51367;45.204;38.576;2023-06-01T04:23:29;5.70;;;4.88;;
64873;SDS011;51367;45.204;38.576;2023-06-01T04:25:56;4.40;;;4.00;;
64873;SDS011;51367;45.204;38.576;2023-06-01T04:28:25;6.07;;;4.88;;
64873;SDS011;51367;45.204;38.576;2023-06-01T04:30:52;6.63;;;5.63;;
64873;SDS011;51367;45.204;38.576;2023-06-01T04:33:18;5.85;;;4.80;;
64873;SDS011;51367;45.204;38.576;2023-06-01T04:35:44;3.35;;;3.05;;
64873;SDS011;51367;45.204;38.576;2023-06-01T04:38:12;3.88;;;3.38;;
64873;SDS011;51367;45.204;38.576;2023-06-01T04:40:39;4.00;;;3.33;;
64873;SDS011;51367;45.204;38.576;2023-06-01T04:43:05;3.95;;;3.53;;
64873;SDS011;51367;45.204;38.576;2023-06-01T04:45:32;3.20;;;2.90;;
64873;SDS011;51367;45.204;38.576;2023-06-01T04:48:03;4.72;;;3.17;;
64873;SDS011;51367;45.204;38.576;2023-06-01T04:50:47;3.63;;;3.00;;
64873;SDS011;51367;45.204;38.576;2023-06-01T04:53:13;3.92;;;3.58;;
64873;SDS011;51367;45.204;38.576;2023-06-01T04:55:39;3.63;;;3.08;;
64873;SDS011;51367;45.204;38.576;2023-06-01T04:58:05;3.15;;;2.85;;
64873;SDS011;51367;45.204;38.576;2023-06-01T05:00:32;3.67;;;2.75;;
64873;SDS011;51367;45.204;38.576;2023-06-01T05:02:58;3.60;;;3.28;;
64873;SDS011;51367;45.204;38.576;2023-06-01T05:05:23;5.22;;;3.92;;
64873;SDS011;51367;45.204;38.576;2023-06-01T05:07:50;4.13;;;3.20;;
64873;SDS011;51367;45.204;38.576;2023-06-01T05:10:16;4.53;;;3.80;;
64873;SDS011;51367;45.204;38.576;2023-06-01T05:12:44;4.20;;;3.50;;
64873;SDS011;51367;45.204;38.576;2023-06-01T05:15:11;3.58;;;3.28;;
64873;SDS011;51367;45.204;38.576;2023-06-01T05:17:39;3.17;;;2.88;;
64873;SDS011;51367;45.204;38.576;2023-06-01T05:20:11;6.38;;;3.38;;
64873;SDS011;51367;45.204;38.576;2023-06-01T05:22:39;4.00;;;3.35;;
64873;SDS011;51367;45.204;38.576;2023-06-01T05:25:05;4.45;;;3.85;;
64873;SDS011;51367;45.204;38.576;2023-06-01T05:27:31;9.68;;;3.55;;
64873;SDS011;51367;45.204;38.576;2023-06-01T05:29:57;4.00;;;3.70;;
64873;SDS011;51367;45.204;38.576;2023-06-01T05:32:23;6.35;;;4.57;;
64873;SDS011;51367;45.204;38.576;2023-06-01T05:34:50;4.88;;;4.10;;
64873;SDS011;51367;45.204;38.576;2023-06-01T05:37:16;6.10;;;4.20;;
64873;SDS011;51367;45.204;38.576;2023-06-01T05:39:42;3.63;;;3.30;;
64873;SDS011;51367;45.204;38.576;2023-06-01T05:42:10;5.55;;;3.83;;
64873;SDS011;51367;45.204;38.576;2023-06-01T05:44:38;4.30;;;3.90;;
64873;SDS011;51367;45.204;38.576;2023-06-01T05:47:04;9.43;;;3.75;;
64873;SDS011;51367;45.204;38.576;2023-06-01T05:49:30;3.97;;;3.67;;
64873;SDS011;51367;45.204;38.576;2023-06-01T05:51:57;4.20;;;3.38;;
64873;SDS011;51367;45.204;38.576;2023-06-01T05:54:25;4.60;;;3.67;;
64873;SDS011;51367;45.204;38.576;2023-06-01T05:56:51;2.72;;;2.53;;
64873;SDS011;51367;45.204;38.576;2023-06-01T05:59:18;4.40;;;3.25;;
64873;SDS011;51367;45.204;38.576;2023-06-01T06:01:44;3.80;;;3.22;;
64873;SDS011;51367;45.204;38.576;2023-06-01T06:04:10;5.32;;;3.95;;
64873;SDS011;51367;45.204;38.576;2023-06-01T06:06:36;5.15;;;3.60;;
64873;SDS011;51367;45.204;38.576;2023-06-01T06:09:02;5.75;;;3.70;;
64873;SDS011;51367;45.204;38.576;2023-06-01T06:11:29;6.20;;;3.60;;
64873;SDS011;51367;45.204;38.576;2023-06-01T06:13:55;6.57;;;3.65;;
64873;SDS011;51367;45.204;38.576;2023-06-01T06:16:21;3.65;;;3.35;;
64873;SDS011;51367;45.204;38.576;2023-06-01T06:18:47;2.70;;;2.50;;
64873;SDS011;51367;45.204;38.576;2023-06-01T06:21:13;3.58;;;3.08;;
64873;SDS011;51367;45.204;38.576;2023-06-01T06:23:39;4.13;;;3.13;;
64873;SDS011;51367;45.204;38.576;2023-06-01T06:26:05;3.58;;;3.15;;
64873;SDS011;51367;45.204;38.576;2023-06-01T06:28:32;3.55;;;2.88;;
64873;SDS011;51367;45.204;38.576;2023-06-01T06:30:58;3.60;;;3.30;;
64873;SDS011;51367;45.204;38.576;2023-06-01T06:33:24;4.97;;;2.88;;
64873;SDS011;51367;45.204;38.576;2023-06-01T06:36:08;3.47;;;2.92;;
64873;SDS011;51367;45.204;38.576;2023-06-01T06:38:34;3.78;;;3.25;;
64873;SDS011;51367;45.204;38.576;2023-06-01T06:40:59;4.60;;;2.78;;
64873;SDS011;51367;45.204;38.576;2023-06-01T06:43:25;3.28;;;2.85;;
64873;SDS011;51367;45.204;38.576;2023-06-01T06:45:51;4.22;;;3.13;;
64873;SDS011;51367;45.204;38.576;2023-06-01T06:48:36;3.17;;;2.75;;
64873;SDS011;51367;45.204;38.576;2023-06-01T06:51:02;4.13;;;2.92;;
64873;SDS011;51367;45.204;38.576;2023-06-01T06:53:28;8.32;;;2.58;;
64873;SDS011;51367;45.204;38.576;2023-06-01T06:55:54;2.85;;;2.60;;
64873;SDS011;51367;45.204;38.576;2023-06-01T06:58:21;2.70;;;2.50;;
64873;SDS011;51367;45.204;38.576;2023-06-01T07:00:47;6.32;;;2.08;;
64873;SDS011;51367;45.204;38.576;2023-06-01T07:03:14;3.13;;;2.45;;
64873;SDS011;51367;45.204;38.576;2023-06-01T07:05:40;3.47;;;1.83;;
64873;SDS011;51367;45.204;38.576;2023-06-01T07:08:06;2.38;;;2.13;;
64873;SDS011;51367;45.204;38.576;2023-06-01T07:10:31;2.83;;;2.00;;
64873;SDS011;51367;45.204;38.576;2023-06-01T07:12:57;1.90;;;1.80;;
64873;SDS011;51367;45.204;38.576;2023-06-01T07:15:23;2.22;;;2.00;;
64873;SDS011;51367;45.204;38.576;2023-06-01T07:17:50;2.40;;;2.20;;
64873;SDS011;51367;45.204;38.576;2023-06-01T07:20:16;3.25;;;2.15;;
64873;SDS011;51367;45.204;38.576;2023-06-01T07:22:42;5.10;;;2.75;;
64873;SDS011;51367;45.204;38.576;2023-06-01T07:25:08;2.42;;;2.22;;
64873;SDS011;51367;45.204;38.576;2023-06-01T07:27:38;2.17;;;1.98;;
64873;SDS011;51367;45.204;38.576;2023-06-01T07:30:08;2.50;;;2.30;;
64873;SDS011;51367;45.204;38.576;2023-06-01T07:32:35;3.40;;;2.60;;
64873;SDS011;51367;45.204;38.576;2023-06-01T07:35:02;1.83;;;1.73;;
64873;SDS011;51367;45.204;38.576;2023-06-01T07:37:30;2.22;;;2.08;;
64873;SDS011;51367;45.204;38.576;2023-06-01T07:39:57;3.15;;;2.03;;
64873;SDS011;51367;45.204;38.576;2023-06-01T07:42:23;2.20;;;1.98;;
64873;SDS011;51367;45.204;38.576;2023-06-01T07:44:48;2.30;;;1.88;;
64873;SDS011;51367;45.204;38.576;2023-06-01T07:47:16;2.38;;;1.85;;
64873;SDS011;51367;45.204;38.576;2023-06-01T07:49:42;1.63;;;1.50;;
64873;SDS011;51367;45.204;38.576;2023-06-01T07:52:08;1.27;;;1.17;;
64873;SDS011;51367;45.204;38.576;2023-06-01T07:54:34;2.35;;;1.40;;
64873;SDS011;51367;45.204;38.576;2023-06-01T07:57:05;1.13;;;1.02;;
64873;SDS011;51367;45.204;38.576;2023-06-01T07:59:31;1.50;;;1.40;;
64873;SDS011;51367;45.204;38.576;2023-06-01T08:01:57;1.45;;;1.35;;
64873;SDS011;51367;45.204;38.576;2023-06-01T08:04:24;1.60;;;1.40;;
64873;SDS011;51367;45.204;38.576;2023-06-01T08:06:51;2.13;;;1.50;;
64873;SDS011;51367;45.204;38.576;2023-06-01T08:09:21;1.60;;;1.42;;
64873;SDS011;51367;45.204;38.576;2023-06-01T08:11:49;1.40;;;1.30;;
64873;SDS011;51367;45.204;38.576;2023-06-01T08:14:16;1.23;;;1.13;;
64873;SDS011;51367;45.204;38.576;2023-06-01T08:16:44;0.98;;;0.98;;
64873;SDS011;51367;45.204;38.576;2023-06-01T08:19:10;1.50;;;1.40;;
64873;SDS011;51367;45.204;38.576;2023-06-01T08:21:36;1.75;;;1.40;;
64873;SDS011;51367;45.204;38.576;2023-06-01T08:24:02;1.70;;;1.30;;
64873;SDS011;51367;45.204;38.576;2023-06-01T08:26:29;2.13;;;1.48;;
64873;SDS011;51367;45.204;38.576;2023-06-01T08:28:55;2.10;;;1.80;;
64873;SDS011;51367;45.204;38.576;2023-06-01T08:31:21;10.13;;;1.63;;
64873;SDS011;51367;45.204;38.576;2023-06-01T08:33:50;2.28;;;1.55;;
64873;SDS011;51367;45.204;38.576;2023-06-01T08:36:17;2.85;;;1.38;;
64873;SDS011;51367;45.204;38.576;2023-06-01T08:38:44;1.48;;;1.27;;
64873;SDS011;51367;45.204;38.576;2023-06-01T08:44:03;1.70;;;1.52;;
64873;SDS011;51367;45.204;38.576;2023-06-01T08:46:30;2.30;;;1.67;;
64873;SDS011;51367;45.204;38.576;2023-06-01T08:48:58;1.77;;;1.50;;
64873;SDS011;51367;45.204;38.576;2023-06-01T08:51:25;1.63;;;1.30;;
64873;SDS011;51367;45.204;38.576;2023-06-01T08:53:52;1.52;;;1.42;;
64873;SDS011;51367;45.204;38.576;2023-06-01T08:56:19;1.17;;;1.08;;
64873;SDS011;51367;45.204;38.576;2023-06-01T08:58:47;1.50;;;1.40;;
64873;SDS011;51367;45.204;38.576;2023-06-01T09:01:15;2.00;;;1.35;;
64873;SDS011;51367;45.204;38.576;2023-06-01T09:03:44;1.85;;;1.73;;
64873;SDS011;51367;45.204;38.576;2023-06-01T09:06:10;4.38;;;1.70;;
64873;SDS011;51367;45.204;38.576;2023-06-01T09:08:36;2.03;;;1.63;;
64873;SDS011;51367;45.204;38.576;2023-06-01T09:11:03;1.95;;;1.50;;
64873;SDS011;51367;45.204;38.576;2023-06-01T09:13:32;2.25;;;1.55;;
64873;SDS011;51367;45.204;38.576;2023-06-01T09:16:00;1.80;;;1.70;;
64873;SDS011;51367;45.204;38.576;2023-06-01T09:18:26;2.25;;;1.70;;
64873;SDS011;51367;45.204;38.576;2023-06-01T09:20:52;2.63;;;2.15;;
64873;SDS011;51367;45.204;38.576;2023-06-01T09:23:28;6.45;;;1.77;;
64873;SDS011;51367;45.204;38.576;2023-06-01T09:26:08;3.03;;;1.48;;
64873;SDS011;51367;45.204;38.576;2023-06-01T09:31:42;6.95;;;1.42;;
64873;SDS011;51367;45.204;38.576;2023-06-01T09:34:16;2.10;;;0.90;;
64873;SDS011;51367;45.204;38.576;2023-06-01T09:36:53;2.80;;;1.45;;
64873;SDS011;51367;45.204;38.576;2023-06-01T09:39:22;1.27;;;1.17;;
64873;SDS011;51367;45.204;38.576;2023-06-01T09:44:31;1.58;;;1.48;;
64873;SDS011;51367;45.204;38.576;2023-06-01T09:47:08;1.73;;;1.40;;
64873;SDS011;51367;45.204;38.576;2023-06-01T09:49:39;3.08;;;2.50;;
64873;SDS011;51367;45.204;38.576;2023-06-01T09:57:05;2.35;;;2.15;;
64873;SDS011;51367;45.204;38.576;2023-06-01T10:02:07;2.15;;;1.73;;
64873;SDS011;51367;45.204;38.576;2023-06-01T10:04:38;1.85;;;1.70;;
64873;SDS011;51367;45.204;38.576;2023-06-01T10:07:05;1.90;;;1.73;;
64873;SDS011;51367;45.204;38.576;2023-06-01T10:09:32;3.75;;;1.98;;
64873;SDS011;51367;45.204;38.576;2023-06-01T10:12:02;5.30;;;2.33;;
64873;SDS011;51367;45.204;38.576;2023-06-01T10:14:29;7.45;;;3.33;;
64873;SDS011;51367;45.204;38.576;2023-06-01T10:16:55;2.78;;;2.53;;
64873;SDS011;51367;45.204;38.576;2023-06-01T10:19:21;2.67;;;1.52;;
64873;SDS011;51367;45.204;38.576;2023-06-01T10:21:47;1.65;;;1.55;;
64873;SDS011;51367;45.204;38.576;2023-06-01T10:24:14;2.40;;;1.67;;
64873;SDS011;51367;45.204;38.576;2023-06-01T10:29:33;4.57;;;1.80;;
64873;SDS011;51367;45.204;38.576;2023-06-01T10:31:59;4.10;;;1.50;;
64873;SDS011;51367;45.204;38.576;2023-06-01T10:39:39;4.43;;;2.97;;
64873;SDS011;51367;45.204;38.576;2023-06-01T10:47:06;1.65;;;1.55;;
64873;SDS011;51367;45.204;38.576;2023-06-01T10:52:33;4.13;;;1.70;;
64873;SDS011;51367;45.204;38.576;2023-06-01T10:57:36;1.67;;;1.55;;
64873;SDS011;51367;45.204;38.576;2023-06-01T11:00:10;2.08;;;1.55;;
64873;SDS011;51367;45.204;38.576;2023-06-01T11:10:53;9.80;;;2.20;;
64873;SDS011;51367;45.204;38.576;2023-06-01T11:21:24;1.63;;;1.35;;
64873;SDS011;51367;45.204;38.576;2023-06-01T11:23:52;1.88;;;1.67;;
64873;SDS011;51367;45.204;38.576;2023-06-01T11:26:20;2.90;;;1.60;;
64873;SDS011;51367;45.204;38.576;2023-06-01T11:28:50;1.67;;;1.42;;
64873;SDS011;51367;45.204;38.576;2023-06-01T11:31:19;2.88;;;1.73;;
64873;SDS011;51367;45.204;38.576;2023-06-01T11:33:49;2.47;;;1.73;;
64873;SDS011;51367;45.204;38.576;2023-06-01T11:36:19;2.05;;;1.85;;
64873;SDS011;51367;45.204;38.576;2023-06-01T11:38:48;1.48;;;1.38;;
64873;SDS011;51367;45.204;38.576;2023-06-01T11:41:15;8.90;;;1.75;;
64873;SDS011;51367;45.204;38.576;2023-06-01T11:43:41;2.15;;;1.60;;
64873;SDS011;51367;45.204;38.576;2023-06-01T11:46:08;1.70;;;1.60;;
64873;SDS011;51367;45.204;38.576;2023-06-01T11:48:36;1.92;;;1.30;;
64873;SDS011;51367;45.204;38.576;2023-06-01T11:51:03;2.60;;;1.58;;
64873;SDS011;51367;45.204;38.576;2023-06-01T11:53:31;3.70;;;1.80;;
64873;SDS011;51367;45.204;38.576;2023-06-01T11:55:57;3.60;;;1.40;;
64873;SDS011;51367;45.204;38.576;2023-06-01T12:00:50;4.90;;;1.70;;
64873;SDS011;51367;45.204;38.576;2023-06-01T12:03:17;1.60;;;1.15;;
64873;SDS011;51367;45.204;38.576;2023-06-01T12:05:43;3.80;;;1.17;;
64873;SDS011;51367;45.204;38.576;2023-06-01T12:08:28;1.85;;;1.23;;
64873;SDS011;51367;45.204;38.576;2023-06-01T12:10:56;1.63;;;1.20;;
64873;SDS011;51367;45.204;38.576;2023-06-01T12:13:23;1.77;;;1.65;;
64873;SDS011;51367;45.204;38.576;2023-06-01T12:15:51;2.70;;;1.15;;
64873;SDS011;51367;45.204;38.576;2023-06-01T12:18:28;1.58;;;1.17;;
64873;SDS011;51367;45.204;38.576;2023-06-01T12:20:55;1.02;;;0.98;;
64873;SDS011;51367;45.204;38.576;2023-06-01T12:23:21;2.92;;;1.75;;
64873;SDS011;51367;45.204;38.576;2023-06-01T12:25:51;3.05;;;1.65;;
64873;SDS011;51367;45.204;38.576;2023-06-01T12:28:19;4.40;;;1.50;;
64873;SDS011;51367;45.204;38.576;2023-06-01T12:30:46;15.18;;;1.50;;
64873;SDS011;51367;45.204;38.576;2023-06-01T12:36:01;1.13;;;1.02;;
64873;SDS011;51367;45.204;38.576;2023-06-01T12:38:29;2.10;;;1.30;;
64873;SDS011;51367;45.204;38.576;2023-06-01T12:41:10;2.10;;;1.23;;
64873;SDS011;51367;45.204;38.576;2023-06-01T12:43:37;7.57;;;1.77;;
64873;SDS011;51367;45.204;38.576;2023-06-01T12:46:04;1.13;;;1.10;;
64873;SDS011;51367;45.204;38.576;2023-06-01T12:48:31;2.30;;;1.45;;
64873;SDS011;51367;45.204;38.576;2023-06-01T12:50:58;2.13;;;1.45;;
64873;SDS011;51367;45.204;38.576;2023-06-01T12:53:25;1.98;;;1.40;;
64873;SDS011;51367;45.204;38.576;2023-06-01T12:55:51;1.63;;;1.20;;
64873;SDS011;51367;45.204;38.576;2023-06-01T12:58:17;1.70;;;1.52;;
64873;SDS011;51367;45.204;38.576;2023-06-01T13:00:42;3.10;;;1.40;;
64873;SDS011;51367;45.204;38.576;2023-06-01T13:03:08;1.95;;;1.13;;
64873;SDS011;51367;45.204;38.576;2023-06-01T13:05:34;2.63;;;1.02;;
64873;SDS011;51367;45.204;38.576;2023-06-01T13:08:00;3.00;;;1.48;;
64873;SDS011;51367;45.204;38.576;2023-06-01T13:10:27;1.02;;;1.02;;
64873;SDS011;51367;45.204;38.576;2023-06-01T13:12:54;4.40;;;1.40;;
64873;SDS011;51367;45.204;38.576;2023-06-01T13:15:21;1.20;;;1.10;;
64873;SDS011;51367;45.204;38.576;2023-06-01T13:17:47;1.80;;;1.48;;
64873;SDS011;51367;45.204;38.576;2023-06-01T13:20:13;3.50;;;1.58;;
64873;SDS011;51367;45.204;38.576;2023-06-01T13:22:42;3.63;;;1.60;;
64873;SDS011;51367;45.204;38.576;2023-06-01T13:25:08;1.13;;;1.13;;
64873;SDS011;51367;45.204;38.576;2023-06-01T13:27:35;2.78;;;1.20;;
64873;SDS011;51367;45.204;38.576;2023-06-01T13:30:03;2.08;;;1.27;;
64873;SDS011;51367;45.204;38.576;2023-06-01T13:32:30;2.58;;;1.63;;
64873;SDS011;51367;45.204;38.576;2023-06-01T13:34:56;2.20;;;1.13;;
64873;SDS011;51367;45.204;38.576;2023-06-01T13:37:22;2.10;;;1.40;;
64873;SDS011;51367;45.204;38.576;2023-06-01T13:39:48;1.33;;;1.20;;
64873;SDS011;51367;45.204;38.576;2023-06-01T13:42:15;4.75;;;1.67;;
64873;SDS011;51367;45.204;38.576;2023-06-01T13:44:41;1.13;;;1.05;;
64873;SDS011;51367;45.204;38.576;2023-06-01T13:47:14;2.03;;;1.20;;
64873;SDS011;51367;45.204;38.576;2023-06-01T13:49:41;2.65;;;2.10;;
64873;SDS011;51367;45.204;38.576;2023-06-01T13:52:08;1.58;;;1.05;;
64873;SDS011;51367;45.204;38.576;2023-06-01T13:54:35;2.13;;;1.30;;
64873;SDS011;51367;45.204;38.576;2023-06-01T13:57:01;1.27;;;0.93;;
64873;SDS011;51367;45.204;38.576;2023-06-01T13:59:30;1.00;;;0.90;;
64873;SDS011;51367;45.204;38.576;2023-06-01T14:01:59;2.83;;;1.48;;
64873;SDS011;51367;45.204;38.576;2023-06-01T14:04:25;2.85;;;1.50;;
64873;SDS011;51367;45.204;38.576;2023-06-01T14:06:51;4.15;;;1.73;;
64873;SDS011;51367;45.204;38.576;2023-06-01T14:09:17;2.33;;;1.45;;
64873;SDS011;51367;45.204;38.576;2023-06-01T14:11:43;1.10;;;1.00;;
64873;SDS011;51367;45.204;38.576;2023-06-01T14:14:09;1.25;;;0.93;;
64873;SDS011;51367;45.204;38.576;2023-06-01T14:16:35;1.40;;;1.30;;
64873;SDS011;51367;45.204;38.576;2023-06-01T14:19:01;1.30;;;1.20;;
64873;SDS011;51367;45.204;38.576;2023-06-01T14:21:28;2.75;;;1.38;;
64873;SDS011;51367;45.204;38.576;2023-06-01T14:23:56;1.63;;;1.08;;
64873;SDS011;51367;45.204;38.576;2023-06-01T14:26:22;2.50;;;1.45;;
64873;SDS011;51367;45.204;38.576;2023-06-01T14:28:49;2.38;;;1.15;;
64873;SDS011;51367;45.204;38.576;2023-06-01T14:31:15;1.52;;;1.20;;
64873;SDS011;51367;45.204;38.576;2023-06-01T14:33:41;1.55;;;1.45;;
64873;SDS011;51367;45.204;38.576;2023-06-01T14:36:07;2.03;;;1.38;;
64873;SDS011;51367;45.204;38.576;2023-06-01T14:38:33;3.88;;;1.65;;
64873;SDS011;51367;45.204;38.576;2023-06-01T14:41:00;1.50;;;1.10;;
64873;SDS011;51367;45.204;38.576;2023-06-01T14:43:26;0.93;;;0.93;;
64873;SDS011;51367;45.204;38.576;2023-06-01T14:45:51;1.63;;;1.30;;
64873;SDS011;51367;45.204;38.576;2023-06-01T14:48:17;1.63;;;1.52;;
64873;SDS011;51367;45.204;38.576;2023-06-01T14:50:43;2.63;;;1.73;;
64873;SDS011;51367;45.204;38.576;2023-06-01T14:53:09;2.00;;;1.48;;
64873;SDS011;51367;45.204;38.576;2023-06-01T14:55:35;1.60;;;1.45;;
64873;SDS011;51367;45.204;38.576;2023-06-01T14:58:01;2.10;;;1.83;;
64873;SDS011;51367;45.204;38.576;2023-06-01T15:00:27;1.98;;;1.27;;
64873;SDS011;51367;45.204;38.576;2023-06-01T15:02:54;4.32;;;2.15;;
64873;SDS011;51367;45.204;38.576;2023-06-01T15:05:19;3.60;;;1.80;;
64873;SDS011;51367;45.204;38.576;2023-06-01T15:07:45;1.75;;;1.65;;
64873;SDS011;51367;45.204;38.576;2023-06-01T15:10:11;2.33;;;1.60;;
64873;SDS011;51367;45.204;38.576;2023-06-01T15:12:37;3.78;;;1.63;;
64873;SDS011;51367;45.204;38.576;2023-06-01T15:15:04;2.75;;;1.30;;
64873;SDS011;51367;45.204;38.576;2023-06-01T15:17:30;3.30;;;1.55;;
64873;SDS011;51367;45.204;38.576;2023-06-01T15:19:56;1.52;;;1.20;;
64873;SDS011;51367;45.204;38.576;2023-06-01T15:22:22;2.35;;;1.50;;
64873;SDS011;51367;45.204;38.576;2023-06-01T15:24:48;1.30;;;1.20;;
64873;SDS011;51367;45.204;38.576;2023-06-01T15:27:14;1.48;;;1.38;;
64873;SDS011;51367;45.204;38.576;2023-06-01T15:29:40;5.70;;;1.73;;
64873;SDS011;51367;45.204;38.576;2023-06-01T15:32:06;2.28;;;1.35;;
64873;SDS011;51367;45.204;38.576;2023-06-01T15:34:32;2.17;;;1.45;;
64873;SDS011;51367;45.204;38.576;2023-06-01T15:36:58;1.80;;;1.38;;
64873;SDS011;51367;45.204;38.576;2023-06-01T15:39:24;1.75;;;1.35;;